sensor_id;sensor_type;location;lat;lon;timestamp;pressure;altitude;pressure_sealevel;temperature;humidity
48892;BME280;50130;52.150;5.236;2022-08-03T00:00:56;101300.0;;;21.21;86.4
48892;BME280;50130;52.150;5.236;2022-08-03T00:02:42;101299.0;;;21.11;86.6
48892;BME280;50130;52.150;5.236;2022-08-03T00:04:28;101300.0;;;21.2;86.75
48892;BME280;50130;52.150;5.236;2022-08-03T00:06:14;101301.0;;;21.18;86.86
48892;BME280;50130;52.150;5.236;2022-08-03T00:09:49;101305.0;;;21.14;87.24
48892;BME280;50130;52.150;5.236;2022-08-03T00:11:36;101298.0;;;21.2;86.52
48892;BME280;50130;52.150;5.236;2022-08-03T00:13:23;101299.0;;;21.13;87.09
48892;BME280;50130;52.150;5.236;2022-08-03T00:15:10;101299.0;;;21.19;86.43
48892;BME280;50130;52.150;5.236;2022-08-03T00:16:57;101299.0;;;21.13;87.48
48892;BME280;50130;52.150;5.236;2022-08-03T00:20:30;101297.0;;;21.17;86.87
48892;BME280;50130;52.150;5.236;2022-08-03T00:22:16;101300.0;;;21.04;87.14
48892;BME280;50130;52.150;5.236;2022-08-03T00:24:03;101294.0;;;21.17;86.52
48892;BME280;50130;52.150;5.236;2022-08-03T00:25:50;101298.0;;;21.09;87.05
48892;BME280;50130;52.150;5.236;2022-08-03T00:27:36;101299.0;;;21.04;87.44
48892;BME280;50130;52.150;5.236;2022-08-03T00:29:23;101297.0;;;21.02;87.43
48892;BME280;50130;52.150;5.236;2022-08-03T00:32:56;101296.0;;;20.95;87.73
48892;BME280;50130;52.150;5.236;2022-08-03T00:34:42;101294.0;;;20.96;87.67
48892;BME280;50130;52.150;5.236;2022-08-03T00:36:29;101298.0;;;21.0;87.5
48892;BME280;50130;52.150;5.236;2022-08-03T00:38:16;101295.0;;;20.89;88.41
48892;BME280;50130;52.150;5.236;2022-08-03T00:40:03;101293.0;;;20.86;88.43
48892;BME280;50130;52.150;5.236;2022-08-03T00:41:49;101294.0;;;20.87;88.4
48892;BME280;50130;52.150;5.236;2022-08-03T00:45:24;101294.0;;;20.93;88.69
48892;BME280;50130;52.150;5.236;2022-08-03T00:47:13;101293.0;;;20.91;88.59
48892;BME280;50130;52.150;5.236;2022-08-03T00:48:59;101293.0;;;20.86;88.74
48892;BME280;50130;52.150;5.236;2022-08-03T00:50:47;101285.0;;;20.85;89.21
48892;BME280;50130;52.150;5.236;2022-08-03T00:52:33;101282.0;;;20.81;88.83
48892;BME280;50130;52.150;5.236;2022-08-03T00:56:12;101285.0;;;20.71;89.31
48892;BME280;50130;52.150;5.236;2022-08-03T00:58:01;101282.0;;;20.63;89.43
48892;BME280;50130;52.150;5.236;2022-08-03T00:59:48;101283.0;;;20.61;89.39
48892;BME280;50130;52.150;5.236;2022-08-03T01:03:20;101285.0;;;20.55;89.31
48892;BME280;50130;52.150;5.236;2022-08-03T01:05:07;101280.0;;;20.6;89.2
48892;BME280;50130;52.150;5.236;2022-08-03T01:08:54;101280.0;;;20.51;90.17
48892;BME280;50130;52.150;5.236;2022-08-03T01:10:51;101280.0;;;20.51;89.67
48892;BME280;50130;52.150;5.236;2022-08-03T01:12:56;101283.0;;;20.55;89.53
48892;BME280;50130;52.150;5.236;2022-08-03T01:14:51;101281.0;;;20.36;90.21
48892;BME280;50130;52.150;5.236;2022-08-03T01:16:51;101277.0;;;20.53;89.47
48892;BME280;50130;52.150;5.236;2022-08-03T01:18:46;101276.0;;;20.43;89.87
48892;BME280;50130;52.150;5.236;2022-08-03T01:20:42;101274.0;;;20.34;90.25
48892;BME280;50130;52.150;5.236;2022-08-03T01:22:54;101275.0;;;20.39;89.93
48892;BME280;50130;52.150;5.236;2022-08-03T01:24:54;101273.0;;;20.39;89.87
48892;BME280;50130;52.150;5.236;2022-08-03T01:26:54;101268.0;;;20.31;90.39
48892;BME280;50130;52.150;5.236;2022-08-03T01:29:00;101267.0;;;20.36;90.4
48892;BME280;50130;52.150;5.236;2022-08-03T01:30:52;101269.0;;;20.36;91.37
48892;BME280;50130;52.150;5.236;2022-08-03T01:32:46;101269.0;;;20.43;90.28
48892;BME280;50130;52.150;5.236;2022-08-03T01:34:40;101272.0;;;20.39;90.01
48892;BME280;50130;52.150;5.236;2022-08-03T01:36:37;101268.0;;;20.3;90.38
48892;BME280;50130;52.150;5.236;2022-08-03T01:38:27;101267.0;;;20.41;90.66
48892;BME280;50130;52.150;5.236;2022-08-03T01:42:07;101269.0;;;20.38;90.88
48892;BME280;50130;52.150;5.236;2022-08-03T01:43:57;101268.0;;;20.36;90.91
48892;BME280;50130;52.150;5.236;2022-08-03T01:45:46;101268.0;;;20.39;90.38
48892;BME280;50130;52.150;5.236;2022-08-03T01:47:34;101268.0;;;20.41;90.22
48892;BME280;50130;52.150;5.236;2022-08-03T01:49:23;101269.0;;;20.36;90.15
48892;BME280;50130;52.150;5.236;2022-08-03T01:51:10;101267.0;;;20.36;90.08
48892;BME280;50130;52.150;5.236;2022-08-03T01:52:59;101268.0;;;20.38;90.64
48892;BME280;50130;52.150;5.236;2022-08-03T01:56:38;101261.0;;;20.43;90.29
48892;BME280;50130;52.150;5.236;2022-08-03T01:58:27;101259.0;;;20.3;90.32
48892;BME280;50130;52.150;5.236;2022-08-03T02:00:15;101259.0;;;20.28;90.26
48892;BME280;50130;52.150;5.236;2022-08-03T02:02:04;101257.0;;;20.28;90.23
48892;BME280;50130;52.150;5.236;2022-08-03T02:03:54;101257.0;;;20.25;90.6
48892;BME280;50130;52.150;5.236;2022-08-03T02:05:44;101255.0;;;20.18;91.34
48892;BME280;50130;52.150;5.236;2022-08-03T02:09:21;101252.0;;;20.22;91.07
48892;BME280;50130;52.150;5.236;2022-08-03T02:11:08;101255.0;;;20.49;90.1
48892;BME280;50130;52.150;5.236;2022-08-03T02:12:56;101258.0;;;20.41;90.18
48892;BME280;50130;52.150;5.236;2022-08-03T02:14:47;101258.0;;;20.32;90.32
48892;BME280;50130;52.150;5.236;2022-08-03T02:16:35;101261.0;;;20.14;91.21
48892;BME280;50130;52.150;5.236;2022-08-03T02:18:23;101257.0;;;20.18;90.95
48892;BME280;50130;52.150;5.236;2022-08-03T02:20:12;101255.0;;;20.16;91.41
48892;BME280;50130;52.150;5.236;2022-08-03T02:23:48;101253.0;;;20.23;91.83
48892;BME280;50130;52.150;5.236;2022-08-03T02:25:40;101249.0;;;20.2;92.72
48892;BME280;50130;52.150;5.236;2022-08-03T02:27:37;101253.0;;;20.27;92.08
48892;BME280;50130;52.150;5.236;2022-08-03T02:29:31;101249.0;;;20.25;91.76
48892;BME280;50130;52.150;5.236;2022-08-03T02:31:23;101248.0;;;20.3;91.97
48892;BME280;50130;52.150;5.236;2022-08-03T02:33:17;101249.0;;;20.3;92.14
48892;BME280;50130;52.150;5.236;2022-08-03T02:35:10;101248.0;;;20.22;92.11
48892;BME280;50130;52.150;5.236;2022-08-03T02:36:59;101245.0;;;20.28;91.5
48892;BME280;50130;52.150;5.236;2022-08-03T02:40:39;101239.0;;;20.22;91.73
48892;BME280;50130;52.150;5.236;2022-08-03T02:42:31;101236.0;;;20.22;91.76
48892;BME280;50130;52.150;5.236;2022-08-03T02:44:23;101240.0;;;20.25;91.58
48892;BME280;50130;52.150;5.236;2022-08-03T02:46:12;101239.0;;;20.36;91.88
48892;BME280;50130;52.150;5.236;2022-08-03T02:48:04;101238.0;;;20.37;91.75
48892;BME280;50130;52.150;5.236;2022-08-03T02:49:53;101233.0;;;20.41;91.54
48892;BME280;50130;52.150;5.236;2022-08-03T02:51:42;101234.0;;;20.55;90.81
48892;BME280;50130;52.150;5.236;2022-08-03T02:55:20;101233.0;;;20.39;91.23
48892;BME280;50130;52.150;5.236;2022-08-03T02:57:10;101237.0;;;20.45;90.79
48892;BME280;50130;52.150;5.236;2022-08-03T02:58:59;101234.0;;;20.39;90.94
48892;BME280;50130;52.150;5.236;2022-08-03T03:00:47;101235.0;;;20.39;90.9
48892;BME280;50130;52.150;5.236;2022-08-03T03:02:35;101232.0;;;20.31;91.08
48892;BME280;50130;52.150;5.236;2022-08-03T03:04:24;101231.0;;;20.25;91.24
48892;BME280;50130;52.150;5.236;2022-08-03T03:06:13;101230.0;;;20.25;91.14
48892;BME280;50130;52.150;5.236;2022-08-03T03:09:49;101224.0;;;20.18;91.22
48892;BME280;50130;52.150;5.236;2022-08-03T03:11:37;101222.0;;;20.18;91.36
48892;BME280;50130;52.150;5.236;2022-08-03T03:13:26;101220.0;;;20.16;91.25
48892;BME280;50130;52.150;5.236;2022-08-03T03:15:14;101221.0;;;20.06;91.75
48892;BME280;50130;52.150;5.236;2022-08-03T03:17:00;101221.0;;;20.27;90.8
48892;BME280;50130;52.150;5.236;2022-08-03T03:18:49;101218.0;;;20.11;92.32
48892;BME280;50130;52.150;5.236;2022-08-03T03:22:26;101222.0;;;20.02;92.38
48892;BME280;50130;52.150;5.236;2022-08-03T03:24:15;101223.0;;;20.04;92.69
48892;BME280;50130;52.150;5.236;2022-08-03T03:26:01;101222.0;;;20.14;91.85
48892;BME280;50130;52.150;5.236;2022-08-03T03:27:48;101224.0;;;20.04;92.1
48892;BME280;50130;52.150;5.236;2022-08-03T03:29:36;101230.0;;;20.0;92.71
48892;BME280;50130;52.150;5.236;2022-08-03T03:31:22;101228.0;;;20.04;92.2
48892;BME280;50130;52.150;5.236;2022-08-03T03:34:56;101227.0;;;20.0;92.28
48892;BME280;50130;52.150;5.236;2022-08-03T03:36:45;101228.0;;;20.02;92.0
48892;BME280;50130;52.150;5.236;2022-08-03T03:38:32;101222.0;;;20.05;92.3
48892;BME280;50130;52.150;5.236;2022-08-03T03:40:19;101226.0;;;19.93;92.34
48892;BME280;50130;52.150;5.236;2022-08-03T03:42:07;101225.0;;;19.95;92.9
48892;BME280;50130;52.150;5.236;2022-08-03T03:43:55;101228.0;;;20.02;92.01
48892;BME280;50130;52.150;5.236;2022-08-03T03:47:28;101231.0;;;19.89;91.98
48892;BME280;50130;52.150;5.236;2022-08-03T03:49:15;101228.0;;;19.91;91.91
48892;BME280;50130;52.150;5.236;2022-08-03T03:51:02;101227.0;;;20.02;91.09
48892;BME280;50130;52.150;5.236;2022-08-03T03:52:48;101230.0;;;19.95;91.66
48892;BME280;50130;52.150;5.236;2022-08-03T03:54:38;101226.0;;;19.97;91.73
48892;BME280;50130;52.150;5.236;2022-08-03T03:56:26;101224.0;;;19.88;92.06
48892;BME280;50130;52.150;5.236;2022-08-03T04:00:00;101227.0;;;19.95;91.86
48892;BME280;50130;52.150;5.236;2022-08-03T04:01:47;101227.0;;;19.84;92.18
48892;BME280;50130;52.150;5.236;2022-08-03T04:03:34;101225.0;;;19.89;92.09
48892;BME280;50130;52.150;5.236;2022-08-03T04:11:26;101230.0;;;19.86;92.31
48892;BME280;50130;52.150;5.236;2022-08-03T04:13:16;101228.0;;;19.86;93.07
48892;BME280;50130;52.150;5.236;2022-08-03T04:16:55;101232.0;;;19.84;92.69
48892;BME280;50130;52.150;5.236;2022-08-03T04:18:45;101231.0;;;19.88;92.59
48892;BME280;50130;52.150;5.236;2022-08-03T04:20:37;101231.0;;;19.91;92.92
48892;BME280;50130;52.150;5.236;2022-08-03T04:22:28;101232.0;;;19.91;92.37
48892;BME280;50130;52.150;5.236;2022-08-03T04:24:18;101234.0;;;19.88;92.38
48892;BME280;50130;52.150;5.236;2022-08-03T04:26:07;101233.0;;;19.78;92.59
48892;BME280;50130;52.150;5.236;2022-08-03T04:27:59;101240.0;;;19.77;92.72
48892;BME280;50130;52.150;5.236;2022-08-03T04:31:37;101237.0;;;19.75;92.51
48892;BME280;50130;52.150;5.236;2022-08-03T04:33:28;101236.0;;;19.72;92.36
48892;BME280;50130;52.150;5.236;2022-08-03T04:35:17;101237.0;;;19.84;92.13
48892;BME280;50130;52.150;5.236;2022-08-03T04:37:10;101233.0;;;19.89;91.97
48892;BME280;50130;52.150;5.236;2022-08-03T04:39:13;101234.0;;;19.84;92.23
48892;BME280;50130;52.150;5.236;2022-08-03T04:41:01;101234.0;;;19.91;92.0
48892;BME280;50130;52.150;5.236;2022-08-03T04:42:51;101238.0;;;19.84;92.26
48892;BME280;50130;52.150;5.236;2022-08-03T04:44:41;101236.0;;;19.86;92.11
48892;BME280;50130;52.150;5.236;2022-08-03T04:48:22;101237.0;;;19.77;92.59
48892;BME280;50130;52.150;5.236;2022-08-03T04:50:10;101241.0;;;19.82;92.44
48892;BME280;50130;52.150;5.236;2022-08-03T04:51:56;101238.0;;;19.75;92.88
48892;BME280;50130;52.150;5.236;2022-08-03T04:53:43;101242.0;;;19.87;92.11
48892;BME280;50130;52.150;5.236;2022-08-03T04:55:31;101242.0;;;19.86;92.43
48892;BME280;50130;52.150;5.236;2022-08-03T04:57:19;101249.0;;;19.8;93.13
48892;BME280;50130;52.150;5.236;2022-08-03T05:00:52;101252.0;;;19.71;93.55
48892;BME280;50130;52.150;5.236;2022-08-03T05:02:39;101252.0;;;19.78;93.0
48892;BME280;50130;52.150;5.236;2022-08-03T05:04:25;101250.0;;;19.81;92.68
48892;BME280;50130;52.150;5.236;2022-08-03T05:06:11;101256.0;;;19.79;92.87
48892;BME280;50130;52.150;5.236;2022-08-03T05:07:57;101255.0;;;19.84;92.12
48892;BME280;50130;52.150;5.236;2022-08-03T05:09:44;101255.0;;;19.84;92.48
48892;BME280;50130;52.150;5.236;2022-08-03T05:13:17;101257.0;;;19.98;91.91
48892;BME280;50130;52.150;5.236;2022-08-03T05:15:05;101263.0;;;19.84;92.62
48892;BME280;50130;52.150;5.236;2022-08-03T05:16:52;101263.0;;;19.84;92.46
48892;BME280;50130;52.150;5.236;2022-08-03T05:18:38;101262.0;;;19.89;92.14
48892;BME280;50130;52.150;5.236;2022-08-03T05:20:25;101265.0;;;19.77;93.02
48892;BME280;50130;52.150;5.236;2022-08-03T05:22:12;101273.0;;;19.78;93.34
48892;BME280;50130;52.150;5.236;2022-08-03T05:25:44;101269.0;;;19.93;92.36
48892;BME280;50130;52.150;5.236;2022-08-03T05:27:31;101271.0;;;19.93;92.1
48892;BME280;50130;52.150;5.236;2022-08-03T05:29:17;101266.0;;;19.82;92.89
48892;BME280;50130;52.150;5.236;2022-08-03T05:31:04;101268.0;;;19.84;92.84
48892;BME280;50130;52.150;5.236;2022-08-03T05:32:51;101269.0;;;19.82;92.94
48892;BME280;50130;52.150;5.236;2022-08-03T05:36:24;101273.0;;;19.98;92.53
48892;BME280;50130;52.150;5.236;2022-08-03T05:38:11;101271.0;;;20.0;92.02
48892;BME280;50130;52.150;5.236;2022-08-03T05:39:57;101271.0;;;20.06;92.16
48892;BME280;50130;52.150;5.236;2022-08-03T05:41:43;101269.0;;;20.0;92.32
48892;BME280;50130;52.150;5.236;2022-08-03T05:43:31;101272.0;;;20.04;92.39
48892;BME280;50130;52.150;5.236;2022-08-03T05:45:18;101275.0;;;20.02;92.71
48892;BME280;50130;52.150;5.236;2022-08-03T05:48:51;101272.0;;;20.09;92.54
48892;BME280;50130;52.150;5.236;2022-08-03T05:50:37;101276.0;;;20.11;92.78
48892;BME280;50130;52.150;5.236;2022-08-03T05:52:23;101278.0;;;20.14;92.68
48892;BME280;50130;52.150;5.236;2022-08-03T05:54:10;101276.0;;;20.34;91.74
48892;BME280;50130;52.150;5.236;2022-08-03T05:55:57;101275.0;;;20.36;91.77
48892;BME280;50130;52.150;5.236;2022-08-03T05:57:44;101272.0;;;20.39;91.75
48892;BME280;50130;52.150;5.236;2022-08-03T06:01:18;101272.0;;;20.53;91.27
48892;BME280;50130;52.150;5.236;2022-08-03T06:03:05;101280.0;;;20.52;91.23
48892;BME280;50130;52.150;5.236;2022-08-03T06:04:52;101278.0;;;20.48;91.61
48892;BME280;50130;52.150;5.236;2022-08-03T06:06:39;101271.0;;;20.52;91.65
48892;BME280;50130;52.150;5.236;2022-08-03T06:08:25;101275.0;;;20.53;91.98
48892;BME280;50130;52.150;5.236;2022-08-03T06:11:57;101269.0;;;20.65;91.09
48892;BME280;50130;52.150;5.236;2022-08-03T06:13:43;101273.0;;;20.67;90.88
48892;BME280;50130;52.150;5.236;2022-08-03T06:15:29;101274.0;;;20.86;90.63
48892;BME280;50130;52.150;5.236;2022-08-03T06:17:18;101275.0;;;20.87;90.34
48892;BME280;50130;52.150;5.236;2022-08-03T06:19:06;101277.0;;;20.85;90.46
48892;BME280;50130;52.150;5.236;2022-08-03T06:20:53;101276.0;;;20.92;90.13
48892;BME280;50130;52.150;5.236;2022-08-03T06:24:25;101280.0;;;21.03;89.9
48892;BME280;50130;52.150;5.236;2022-08-03T06:26:12;101285.0;;;21.04;89.69
48892;BME280;50130;52.150;5.236;2022-08-03T06:27:59;101283.0;;;21.12;89.42
48892;BME280;50130;52.150;5.236;2022-08-03T06:29:45;101278.0;;;21.23;89.51
48892;BME280;50130;52.150;5.236;2022-08-03T06:31:32;101280.0;;;21.28;88.87
48892;BME280;50130;52.150;5.236;2022-08-03T06:33:18;101276.0;;;21.34;88.35
48892;BME280;50130;52.150;5.236;2022-08-03T06:36:53;101271.0;;;21.43;88.72
48892;BME280;50130;52.150;5.236;2022-08-03T06:38:39;101270.0;;;21.51;88.04
48892;BME280;50130;52.150;5.236;2022-08-03T06:40:28;101271.0;;;21.62;87.25
48892;BME280;50130;52.150;5.236;2022-08-03T06:42:16;101272.0;;;21.61;87.02
48892;BME280;50130;52.150;5.236;2022-08-03T06:44:02;101275.0;;;21.64;86.85
48892;BME280;50130;52.150;5.236;2022-08-03T06:45:49;101275.0;;;21.76;86.29
48892;BME280;50130;52.150;5.236;2022-08-03T06:49:23;101277.0;;;21.71;86.63
48892;BME280;50130;52.150;5.236;2022-08-03T06:51:09;101282.0;;;21.83;86.6
48892;BME280;50130;52.150;5.236;2022-08-03T06:52:57;101280.0;;;21.86;86.75
48892;BME280;50130;52.150;5.236;2022-08-03T06:54:44;101283.0;;;22.05;85.65
48892;BME280;50130;52.150;5.236;2022-08-03T06:56:31;101289.0;;;22.08;84.98
48892;BME280;50130;52.150;5.236;2022-08-03T07:00:04;101294.0;;;22.05;84.82
48892;BME280;50130;52.150;5.236;2022-08-03T07:01:51;101297.0;;;22.1;85.13
48892;BME280;50130;52.150;5.236;2022-08-03T07:03:37;101294.0;;;22.21;84.65
48892;BME280;50130;52.150;5.236;2022-08-03T07:05:23;101293.0;;;22.2;83.62
48892;BME280;50130;52.150;5.236;2022-08-03T07:07:10;101295.0;;;22.24;84.65
48892;BME280;50130;52.150;5.236;2022-08-03T07:08:56;101289.0;;;22.32;84.56
48892;BME280;50130;52.150;5.236;2022-08-03T07:12:30;101293.0;;;22.35;84.38
48892;BME280;50130;52.150;5.236;2022-08-03T07:14:17;101301.0;;;22.59;83.93
48892;BME280;50130;52.150;5.236;2022-08-03T07:16:04;101296.0;;;22.5;83.89
48892;BME280;50130;52.150;5.236;2022-08-03T07:17:50;101302.0;;;22.61;82.65
48892;BME280;50130;52.150;5.236;2022-08-03T07:19:37;101307.0;;;22.66;82.4
48892;BME280;50130;52.150;5.236;2022-08-03T07:21:23;101308.0;;;22.77;82.28
48892;BME280;50130;52.150;5.236;2022-08-03T07:24:56;101311.0;;;22.71;81.87
48892;BME280;50130;52.150;5.236;2022-08-03T07:26:43;101313.0;;;22.74;81.81
48892;BME280;50130;52.150;5.236;2022-08-03T07:28:29;101313.0;;;22.87;81.67
48892;BME280;50130;52.150;5.236;2022-08-03T07:30:15;101316.0;;;23.02;81.27
48892;BME280;50130;52.150;5.236;2022-08-03T07:32:03;101314.0;;;23.08;81.39
48892;BME280;50130;52.150;5.236;2022-08-03T07:35:38;101316.0;;;23.15;80.62
48892;BME280;50130;52.150;5.236;2022-08-03T07:37:24;101321.0;;;23.28;80.44
48892;BME280;50130;52.150;5.236;2022-08-03T07:39:11;101325.0;;;23.37;79.5
48892;BME280;50130;52.150;5.236;2022-08-03T07:40:58;101322.0;;;23.47;79.72
48892;BME280;50130;52.150;5.236;2022-08-03T07:42:44;101323.0;;;23.57;79.52
48892;BME280;50130;52.150;5.236;2022-08-03T07:44:31;101323.0;;;23.63;78.95
48892;BME280;50130;52.150;5.236;2022-08-03T07:48:04;101321.0;;;23.9;78.69
48892;BME280;50130;52.150;5.236;2022-08-03T07:49:50;101316.0;;;23.89;77.16
48892;BME280;50130;52.150;5.236;2022-08-03T07:51:38;101322.0;;;23.97;76.62
48892;BME280;50130;52.150;5.236;2022-08-03T07:53:25;101324.0;;;24.01;76.27
48892;BME280;50130;52.150;5.236;2022-08-03T07:55:12;101322.0;;;24.11;76.11
48892;BME280;50130;52.150;5.236;2022-08-03T07:56:59;101325.0;;;24.07;75.84
48892;BME280;50130;52.150;5.236;2022-08-03T08:00:31;101325.0;;;24.27;75.84
48892;BME280;50130;52.150;5.236;2022-08-03T08:02:18;101321.0;;;24.34;75.72
48892;BME280;50130;52.150;5.236;2022-08-03T08:04:05;101325.0;;;24.49;74.87
48892;BME280;50130;52.150;5.236;2022-08-03T08:05:52;101330.0;;;24.61;75.3
48892;BME280;50130;52.150;5.236;2022-08-03T08:07:39;101328.0;;;24.6;74.91
48892;BME280;50130;52.150;5.236;2022-08-03T08:11:13;101330.0;;;24.69;73.66
48892;BME280;50130;52.150;5.236;2022-08-03T08:12:59;101330.0;;;24.83;73.58
48892;BME280;50130;52.150;5.236;2022-08-03T08:14:46;101330.0;;;24.73;73.84
48892;BME280;50130;52.150;5.236;2022-08-03T08:16:32;101330.0;;;24.68;73.84
48892;BME280;50130;52.150;5.236;2022-08-03T08:18:19;101326.0;;;24.88;73.73
48892;BME280;50130;52.150;5.236;2022-08-03T08:20:06;101330.0;;;25.0;73.27
48892;BME280;50130;52.150;5.236;2022-08-03T08:23:39;101331.0;;;25.09;72.33
48892;BME280;50130;52.150;5.236;2022-08-03T08:25:25;101337.0;;;25.09;72.12
48892;BME280;50130;52.150;5.236;2022-08-03T08:27:12;101337.0;;;25.28;72.45
48892;BME280;50130;52.150;5.236;2022-08-03T08:30:46;101339.0;;;25.16;71.55
48892;BME280;50130;52.150;5.236;2022-08-03T08:32:36;101333.0;;;25.28;71.53
48892;BME280;50130;52.150;5.236;2022-08-03T08:36:08;101342.0;;;25.46;71.66
48892;BME280;50130;52.150;5.236;2022-08-03T08:37:55;101340.0;;;25.55;71.61
48892;BME280;50130;52.150;5.236;2022-08-03T08:39:40;101345.0;;;25.49;70.47
48892;BME280;50130;52.150;5.236;2022-08-03T08:41:27;101345.0;;;25.57;69.89
48892;BME280;50130;52.150;5.236;2022-08-03T08:43:14;101345.0;;;25.58;69.8
48892;BME280;50130;52.150;5.236;2022-08-03T08:46:49;101350.0;;;25.73;69.56
48892;BME280;50130;52.150;5.236;2022-08-03T08:48:40;101348.0;;;25.94;68.64
48892;BME280;50130;52.150;5.236;2022-08-03T08:50:29;101347.0;;;25.89;69.16
48892;BME280;50130;52.150;5.236;2022-08-03T08:52:18;101345.0;;;26.17;68.55
48892;BME280;50130;52.150;5.236;2022-08-03T08:54:10;101351.0;;;26.17;68.19
48892;BME280;50130;52.150;5.236;2022-08-03T08:55:58;101347.0;;;26.22;68.25
48892;BME280;50130;52.150;5.236;2022-08-03T08:57:47;101341.0;;;26.29;67.91
48892;BME280;50130;52.150;5.236;2022-08-03T09:01:21;101341.0;;;26.39;67.12
48892;BME280;50130;52.150;5.236;2022-08-03T09:03:09;101345.0;;;26.6;67.99
48892;BME280;50130;52.150;5.236;2022-08-03T09:04:56;101345.0;;;26.77;67.24
48892;BME280;50130;52.150;5.236;2022-08-03T09:06:43;101349.0;;;26.81;66.81
48892;BME280;50130;52.150;5.236;2022-08-03T09:08:30;101344.0;;;26.93;65.02
48892;BME280;50130;52.150;5.236;2022-08-03T09:10:19;101349.0;;;26.96;64.85
48892;BME280;50130;52.150;5.236;2022-08-03T09:13:53;101348.0;;;27.0;64.77
48892;BME280;50130;52.150;5.236;2022-08-03T09:15:41;101350.0;;;27.01;64.77
48892;BME280;50130;52.150;5.236;2022-08-03T09:17:39;101355.0;;;27.1;64.47
48892;BME280;50130;52.150;5.236;2022-08-03T09:19:25;101350.0;;;27.15;64.3
48892;BME280;50130;52.150;5.236;2022-08-03T09:21:15;101350.0;;;26.95;64.77
48892;BME280;50130;52.150;5.236;2022-08-03T09:23:05;101350.0;;;27.17;64.0
48892;BME280;50130;52.150;5.236;2022-08-03T09:24:56;101346.0;;;27.23;62.61
48892;BME280;50130;52.150;5.236;2022-08-03T09:28:35;101352.0;;;27.48;61.35
48892;BME280;50130;52.150;5.236;2022-08-03T09:30:22;101350.0;;;27.51;61.52
48892;BME280;50130;52.150;5.236;2022-08-03T09:32:09;101355.0;;;27.53;60.62
48892;BME280;50130;52.150;5.236;2022-08-03T09:34:02;101355.0;;;27.66;61.04
48892;BME280;50130;52.150;5.236;2022-08-03T09:35:49;101350.0;;;27.65;61.67
48892;BME280;50130;52.150;5.236;2022-08-03T09:37:36;101348.0;;;27.73;61.09
48892;BME280;50130;52.150;5.236;2022-08-03T09:41:17;101350.0;;;27.58;61.07
48892;BME280;50130;52.150;5.236;2022-08-03T09:43:07;101355.0;;;27.78;61.15
48892;BME280;50130;52.150;5.236;2022-08-03T09:44:54;101352.0;;;27.72;61.13
48892;BME280;50130;52.150;5.236;2022-08-03T09:46:49;101357.0;;;27.88;61.22
48892;BME280;50130;52.150;5.236;2022-08-03T09:48:36;101366.0;;;28.03;59.85
48892;BME280;50130;52.150;5.236;2022-08-03T09:50:22;101361.0;;;28.13;59.63
48892;BME280;50130;52.150;5.236;2022-08-03T09:52:13;101362.0;;;28.13;60.24
48892;BME280;50130;52.150;5.236;2022-08-03T09:55:52;101369.0;;;28.34;59.43
48892;BME280;50130;52.150;5.236;2022-08-03T09:57:44;101363.0;;;28.23;59.63
48892;BME280;50130;52.150;5.236;2022-08-03T09:59:32;101366.0;;;28.34;59.08
48892;BME280;50130;52.150;5.236;2022-08-03T10:01:19;101369.0;;;28.45;58.92
48892;BME280;50130;52.150;5.236;2022-08-03T10:03:05;101370.0;;;28.45;58.65
48892;BME280;50130;52.150;5.236;2022-08-03T10:04:53;101365.0;;;28.57;58.0
48892;BME280;50130;52.150;5.236;2022-08-03T10:06:39;101359.0;;;28.52;58.04
48892;BME280;50130;52.150;5.236;2022-08-03T10:10:13;101364.0;;;28.77;58.35
48892;BME280;50130;52.150;5.236;2022-08-03T10:12:10;101362.0;;;29.04;57.65
48892;BME280;50130;52.150;5.236;2022-08-03T10:13:57;101367.0;;;29.06;57.44
48892;BME280;50130;52.150;5.236;2022-08-03T10:15:44;101370.0;;;29.1;56.58
48892;BME280;50130;52.150;5.236;2022-08-03T10:17:30;101363.0;;;29.27;57.48
48892;BME280;50130;52.150;5.236;2022-08-03T10:19:18;101360.0;;;29.23;56.64
48892;BME280;50130;52.150;5.236;2022-08-03T10:22:56;101361.0;;;29.39;55.85
48892;BME280;50130;52.150;5.236;2022-08-03T10:24:48;101367.0;;;29.37;55.43
48892;BME280;50130;52.150;5.236;2022-08-03T10:26:43;101361.0;;;29.55;55.42
48892;BME280;50130;52.150;5.236;2022-08-03T10:28:34;101362.0;;;29.79;55.16
48892;BME280;50130;52.150;5.236;2022-08-03T10:30:22;101369.0;;;29.73;54.42
48892;BME280;50130;52.150;5.236;2022-08-03T10:32:20;101361.0;;;29.79;54.69
48892;BME280;50130;52.150;5.236;2022-08-03T10:34:18;101359.0;;;29.77;53.23
48892;BME280;50130;52.150;5.236;2022-08-03T10:36:08;101360.0;;;29.69;52.61
48892;BME280;50130;52.150;5.236;2022-08-03T10:39:55;101358.0;;;29.72;52.68
48892;BME280;50130;52.150;5.236;2022-08-03T10:41:46;101349.0;;;29.71;53.76
48892;BME280;50130;52.150;5.236;2022-08-03T10:43:41;101348.0;;;29.89;52.19
48892;BME280;50130;52.150;5.236;2022-08-03T10:45:33;101348.0;;;29.89;51.43
48892;BME280;50130;52.150;5.236;2022-08-03T10:47:21;101346.0;;;29.94;52.04
48892;BME280;50130;52.150;5.236;2022-08-03T10:49:11;101349.0;;;29.97;51.39
48892;BME280;50130;52.150;5.236;2022-08-03T10:50:59;101352.0;;;29.99;51.93
48892;BME280;50130;52.150;5.236;2022-08-03T10:52:54;101344.0;;;29.99;51.93
48892;BME280;50130;52.150;5.236;2022-08-03T10:57:45;101346.0;;;30.12;50.2
48892;BME280;50130;52.150;5.236;2022-08-03T11:00:04;101340.0;;;30.2;50.5
48892;BME280;50130;52.150;5.236;2022-08-03T11:01:52;101334.0;;;30.02;51.37
48892;BME280;50130;52.150;5.236;2022-08-03T11:04:13;101339.0;;;30.1;50.93
48892;BME280;50130;52.150;5.236;2022-08-03T11:06:13;101337.0;;;30.2;50.62
48892;BME280;50130;52.150;5.236;2022-08-03T11:08:34;101338.0;;;30.39;49.3
48892;BME280;50130;52.150;5.236;2022-08-03T11:10:29;101335.0;;;30.42;49.7
48892;BME280;50130;52.150;5.236;2022-08-03T11:12:20;101342.0;;;30.54;49.1
48892;BME280;50130;52.150;5.236;2022-08-03T11:14:11;101332.0;;;30.68;47.89
48892;BME280;50130;52.150;5.236;2022-08-03T11:16:01;101333.0;;;30.84;47.5
48892;BME280;50130;52.150;5.236;2022-08-03T11:18:07;101340.0;;;30.94;47.91